createdAt,value
2018-08-27T00:01:22.756Z,96195.88
2018-08-27T00:03:51.506Z,96197.75
2018-08-27T00:06:20.204Z,96197.80
2018-08-27T00:08:48.865Z,96197.16
2018-08-27T00:11:17.792Z,96200.03
2018-08-27T00:13:46.438Z,96198.86
2018-08-27T00:16:15.150Z,96205.72
2018-08-27T00:18:43.848Z,96205.33
2018-08-27T00:21:12.982Z,96198.29
2018-08-27T00:23:41.747Z,96198.42
2018-08-27T00:26:10.424Z,96199.00
2018-08-27T00:28:39.318Z,96193.43
2018-08-27T00:31:08.128Z,96192.44
2018-08-27T00:33:36.711Z,96193.86
2018-08-27T00:36:05.577Z,96194.03
2018-08-27T00:38:34.347Z,96192.77
2018-08-27T00:41:03.014Z,96190.31
2018-08-27T00:43:31.879Z,96191.94
2018-08-27T00:46:01.182Z,96187.50
2018-08-27T00:48:29.724Z,96195.20
2018-08-27T00:50:58.361Z,96187.27
2018-08-27T00:53:26.953Z,96180.52
2018-08-27T00:55:56.200Z,96186.20
2018-08-27T00:58:25.431Z,96183.26
2018-08-27T01:00:54.095Z,96185.49
2018-08-27T01:03:23.111Z,96185.24
2018-08-27T01:05:52.503Z,96190.58
2018-08-27T01:08:21.268Z,96190.25
2018-08-27T01:10:49.823Z,96194.81
2018-08-27T01:13:18.502Z,96196.67
2018-08-27T01:15:47.231Z,96193.41
2018-08-27T01:18:15.904Z,96194.36
2018-08-27T01:20:44.505Z,96190.75
2018-08-27T01:23:13.108Z,96196.09
2018-08-27T01:25:41.759Z,96191.08
2018-08-27T01:28:10.477Z,96193.41
2018-08-27T01:30:39.033Z,96194.03
2018-08-27T01:33:07.634Z,96193.41
2018-08-27T01:35:36.332Z,96195.88
2018-08-27T01:38:05.552Z,96198.09
2018-08-27T01:40:34.279Z,96196.24
2018-08-27T01:43:03.977Z,96197.56
2018-08-27T01:45:32.672Z,96197.20
2018-08-27T01:48:01.348Z,96196.74
2018-08-27T01:50:30.100Z,96197.56
2018-08-27T01:52:59.121Z,96193.94
2018-08-27T01:55:27.974Z,96195.13
2018-08-27T01:57:56.955Z,96200.61
2018-08-27T02:00:26.629Z,96199.58
2018-08-27T02:02:55.308Z,96197.72
2018-08-27T02:05:24.216Z,96206.23
2018-08-27T02:07:52.860Z,96205.66
2018-08-27T02:10:21.965Z,96205.08
2018-08-27T02:12:51.037Z,96214.30
2018-08-27T02:15:19.850Z,96212.77
2018-08-27T02:17:48.620Z,96210.91
2018-08-27T02:20:17.793Z,96210.12
2018-08-27T02:22:47.016Z,96213.02
2018-08-27T02:25:15.770Z,96221.88
2018-08-27T02:27:44.323Z,96217.69
2018-08-27T02:30:13.268Z,96220.68
2018-08-27T02:32:41.907Z,96217.08
2018-08-27T02:35:10.871Z,96212.19
2018-08-27T02:37:39.563Z,96211.86
2018-08-27T02:40:08.308Z,96212.19
2018-08-27T02:42:37.637Z,96211.39
2018-08-27T02:45:06.723Z,96213.84
2018-08-27T02:47:35.404Z,96211.73
2018-08-27T02:50:04.121Z,96216.52
2018-08-27T02:52:32.860Z,96216.73
2018-08-27T02:55:02.362Z,96219.08
2018-08-27T02:57:31.200Z,96214.88
2018-08-27T02:59:59.745Z,96221.28
2018-08-27T03:02:28.420Z,96219.54
2018-08-27T03:04:57.206Z,96218.59
2018-08-27T03:07:25.884Z,96214.75
2018-08-27T03:09:54.679Z,96213.47
2018-08-27T03:12:23.383Z,96212.19
2018-08-27T03:14:52.861Z,96217.92
2018-08-27T03:17:21.594Z,96221.28
2018-08-27T03:19:50.292Z,96217.09
2018-08-27T03:22:19.171Z,96212.21
2018-08-27T03:24:48.435Z,96211.63
2018-08-27T03:27:17.122Z,96205.69
2018-08-27T03:29:45.689Z,96209.17
2018-08-27T03:32:15.261Z,96210.91
2018-08-27T03:34:44.388Z,96206.48
2018-08-27T03:37:14.143Z,96214.41
2018-08-27T03:39:43.099Z,96220.81
2018-08-27T03:42:11.884Z,96221.87
2018-08-27T03:44:40.920Z,96220.09
2018-08-27T03:47:09.883Z,96216.03
2018-08-27T03:49:38.928Z,96221.50
2018-08-27T03:52:07.511Z,96226.05
2018-08-27T03:54:36.684Z,96221.72
2018-08-27T03:57:05.435Z,96218.94
2018-08-27T03:59:34.096Z,96220.91
2018-08-27T04:02:04.002Z,96218.81
2018-08-27T04:04:32.703Z,96225.88
2018-08-27T04:07:01.239Z,96220.14
2018-08-27T04:09:30.075Z,96223.96
2018-08-27T04:11:58.773Z,96229.54
2018-08-27T04:14:27.428Z,96226.84
2018-08-27T04:16:56.004Z,96223.83
2018-08-27T04:19:24.627Z,96226.25
2018-08-27T04:21:54.103Z,96230.48
2018-08-27T04:24:22.824Z,96228.48
2018-08-27T04:26:52.251Z,96228.80
2018-08-27T04:29:20.948Z,96230.45
2018-08-27T04:31:50.650Z,96234.41
2018-08-27T04:34:20.101Z,96230.37
2018-08-27T04:36:48.677Z,96232.23
2018-08-27T04:39:17.220Z,96226.80
2018-08-27T04:41:46.064Z,96225.51
2018-08-27T04:44:14.728Z,96231.45
2018-08-27T04:46:43.412Z,96231.59
2018-08-27T04:49:12.515Z,96231.59
2018-08-27T04:51:41.159Z,96235.89
2018-08-27T04:54:09.882Z,96238.09
2018-08-27T04:56:39.091Z,96241.50
2018-08-27T04:59:12.975Z,96240.93
2018-08-27T05:01:44.756Z,96242.08
2018-08-27T05:04:13.422Z,96242.53
2018-08-27T05:06:42.544Z,96245.23
2018-08-27T05:09:12.040Z,96241.03
2018-08-27T05:11:41.156Z,96233.94
2018-08-27T05:14:11.657Z,96239.75
2018-08-27T05:16:41.172Z,96242.69
2018-08-27T05:19:10.560Z,96238.86
2018-08-27T05:21:40.171Z,96241.29
2018-08-27T05:24:08.716Z,96239.33
2018-08-27T05:26:38.116Z,96241.55
2018-08-27T05:29:06.829Z,96244.00
2018-08-27T05:31:35.559Z,96232.93
2018-08-27T05:34:04.216Z,96236.20
2018-08-27T05:36:32.809Z,96237.37
2018-08-27T05:39:01.779Z,96236.54
2018-08-27T05:41:31.428Z,96238.40
2018-08-27T05:44:00.187Z,96239.81
2018-08-27T05:46:29.049Z,96236.06
2018-08-27T05:48:57.765Z,96241.56
2018-08-27T05:51:26.420Z,96239.00
2018-08-27T05:53:56.474Z,96234.44
2018-08-27T05:56:25.333Z,96235.81
2018-08-27T05:58:54.092Z,96240.03
2018-08-27T06:01:23.297Z,96238.95
2018-08-27T06:03:51.891Z,96236.01
2018-08-27T06:06:20.505Z,96235.73
2018-08-27T06:08:49.842Z,96232.40
2018-08-27T06:11:18.617Z,96237.81
2018-08-27T06:13:47.257Z,96230.15
2018-08-27T06:16:16.275Z,96234.72
2018-08-27T06:18:44.985Z,96234.97
2018-08-27T06:21:13.711Z,96237.31
2018-08-27T06:23:42.291Z,96235.23
2018-08-27T06:26:11.064Z,96240.04
2018-08-27T06:28:39.761Z,96236.49
2018-08-27T06:31:08.456Z,96231.13
2018-08-27T06:33:37.780Z,96224.92
2018-08-27T06:36:06.421Z,96226.16
2018-08-27T06:38:35.350Z,96227.13
2018-08-27T06:41:03.979Z,96228.27
2018-08-27T06:43:32.712Z,96232.62
2018-08-27T06:46:01.441Z,96227.48
2018-08-27T06:48:30.860Z,96232.59
2018-08-27T06:50:59.495Z,96223.31
2018-08-27T06:53:28.012Z,96229.59
2018-08-27T06:55:56.756Z,96230.38
2018-08-27T06:58:25.396Z,96230.63
2018-08-27T07:00:54.095Z,96228.08
2018-08-27T07:03:23.533Z,96221.50
2018-08-27T07:05:52.271Z,96227.11
2018-08-27T07:08:20.946Z,96232.67
2018-08-27T07:10:49.688Z,96229.91
2018-08-27T07:13:18.347Z,96220.98
2018-08-27T07:15:46.995Z,96216.95
2018-08-27T07:21:15.158Z,96219.34
2018-08-27T07:23:43.715Z,96219.97
2018-08-27T07:26:13.021Z,96213.05
2018-08-27T07:28:41.902Z,96212.84
2018-08-27T07:31:10.772Z,96214.70
2018-08-27T07:33:39.484Z,96210.95
2018-08-27T07:36:09.341Z,96219.00
2018-08-27T07:38:38.080Z,96214.38
2018-08-27T07:41:06.729Z,96217.62
2018-08-27T07:43:35.621Z,96212.56
2018-08-27T07:46:04.315Z,96211.48
2018-08-27T07:48:33.013Z,96208.51
2018-08-27T07:51:01.553Z,96213.60
2018-08-27T07:53:30.791Z,96213.78
2018-08-27T07:56:00.063Z,96212.55
2018-08-27T07:58:29.566Z,96213.91
2018-08-27T08:00:58.879Z,96219.58
2018-08-27T08:03:27.570Z,96213.11
2018-08-27T08:05:56.219Z,96215.22
2018-08-27T08:08:25.115Z,96209.88
2018-08-27T08:10:53.963Z,96204.22
2018-08-27T08:13:22.685Z,96200.97
2018-08-27T08:15:52.060Z,96203.23
2018-08-27T08:18:21.334Z,96210.54
2018-08-27T08:20:50.325Z,96207.93
2018-08-27T08:23:19.147Z,96199.63
2018-08-27T08:25:48.144Z,96204.48
2018-08-27T08:28:16.860Z,96202.71
2018-08-27T08:30:45.548Z,96212.59
2018-08-27T08:33:14.425Z,96207.70
2018-08-27T08:35:43.126Z,96203.42
2018-08-27T08:38:11.807Z,96208.92
2018-08-27T08:40:40.608Z,96203.90
2018-08-27T08:43:09.976Z,96214.94
2018-08-27T08:45:39.109Z,96214.38
2018-08-27T08:48:07.983Z,96214.38
2018-08-27T08:50:36.771Z,96206.91
2018-08-27T08:53:05.792Z,96204.25
2018-08-27T08:55:34.414Z,96202.23
2018-08-27T08:58:03.161Z,96201.94
2018-08-27T09:00:31.711Z,96201.23
2018-08-27T09:03:00.312Z,96200.78
2018-08-27T09:05:28.844Z,96198.86
2018-08-27T09:07:57.433Z,96195.61
2018-08-27T09:10:25.978Z,96200.48
2018-08-27T09:12:54.536Z,96197.73
2018-08-27T09:15:23.080Z,96199.55
2018-08-27T09:17:51.629Z,96193.83
2018-08-27T09:20:20.267Z,96194.55
2018-08-27T09:22:48.811Z,96192.53
2018-08-27T09:25:18.201Z,96193.20
2018-08-27T09:27:46.768Z,96195.06
2018-08-27T09:30:15.329Z,96189.94
2018-08-27T09:32:43.903Z,96190.39
2018-08-27T09:35:12.468Z,96190.91
2018-08-27T09:37:41.041Z,96192.13
2018-08-27T09:40:09.692Z,96189.52
2018-08-27T09:42:38.308Z,96184.13
2018-08-27T09:45:06.899Z,96194.72
2018-08-27T09:47:35.537Z,96192.87
2018-08-27T09:50:04.084Z,96181.77
2018-08-27T09:52:32.651Z,96187.42
2018-08-27T09:55:02.080Z,96177.86
2018-08-27T09:57:30.824Z,96166.75
2018-08-27T10:00:00.224Z,96184.12
2018-08-27T10:02:28.803Z,96181.87
2018-08-27T10:04:57.350Z,96186.83
2018-08-27T10:07:25.892Z,96182.39
2018-08-27T10:09:54.444Z,96185.67
2018-08-27T10:12:23.018Z,96181.31
2018-08-27T10:14:51.945Z,96166.22
2018-08-27T10:17:21.023Z,96163.03
2018-08-27T10:19:49.727Z,96174.31
2018-08-27T10:22:18.478Z,96179.94
2018-08-27T10:24:47.086Z,96170.51
2018-08-27T10:27:15.747Z,96170.28
2018-08-27T10:29:44.413Z,96169.88
2018-08-27T10:32:12.988Z,96151.09
2018-08-27T10:34:41.516Z,96151.47
2018-08-27T10:37:10.195Z,96155.69
2018-08-27T10:39:38.701Z,96147.98
2018-08-27T10:42:07.709Z,96145.42
2018-08-27T10:44:36.286Z,96136.65
2018-08-27T10:47:04.852Z,96131.95
2018-08-27T10:49:33.409Z,96145.09
2018-08-27T10:52:03.593Z,96145.17
2018-08-27T10:54:32.361Z,96138.47
2018-08-27T10:57:01.192Z,96141.84
2018-08-27T10:59:30.096Z,96143.51
2018-08-27T11:01:59.120Z,96133.47
2018-08-27T11:04:28.837Z,96141.65
2018-08-27T11:06:57.564Z,96138.98
2018-08-27T11:09:27.279Z,96135.86
2018-08-27T11:11:55.829Z,96134.77
2018-08-27T11:14:24.678Z,96133.00
2018-08-27T11:16:53.321Z,96131.67
2018-08-27T11:19:22.041Z,96122.45
2018-08-27T11:21:51.340Z,96125.81
2018-08-27T11:24:21.485Z,96127.69
2018-08-27T11:26:50.372Z,96123.69
2018-08-27T11:29:20.198Z,96126.32
2018-08-27T11:31:49.349Z,96116.45
2018-08-27T11:34:17.929Z,96112.39
2018-08-27T11:36:46.495Z,96116.44
2018-08-27T11:39:15.920Z,96113.40
2018-08-27T11:41:44.987Z,96106.72
2018-08-27T11:44:13.548Z,96116.38
2018-08-27T11:46:42.304Z,96110.90
2018-08-27T11:49:11.592Z,96114.81
2018-08-27T11:51:40.164Z,96111.81
2018-08-27T11:54:08.824Z,96113.40
2018-08-27T11:56:37.424Z,96112.79
2018-08-27T11:59:06.074Z,96110.89
2018-08-27T12:01:34.673Z,96107.76
2018-08-27T12:04:03.236Z,96103.23
2018-08-27T12:06:32.548Z,96105.78
2018-08-27T12:09:01.238Z,96101.52
2018-08-27T12:11:29.923Z,96107.97
2018-08-27T12:13:58.608Z,96099.91
2018-08-27T12:16:27.172Z,96107.72
2018-08-27T12:18:55.780Z,96100.36
2018-08-27T12:21:24.856Z,96108.97
2018-08-27T12:23:54.142Z,96114.64
2018-08-27T12:26:22.731Z,96101.75
2018-08-27T12:28:51.526Z,96098.49
2018-08-27T12:31:20.370Z,96108.86
2018-08-27T12:33:49.089Z,96100.48
2018-08-27T12:36:17.823Z,96098.17
2018-08-27T12:38:46.471Z,96099.98
2018-08-27T12:41:15.342Z,96098.18
2018-08-27T12:43:43.967Z,96092.55
2018-08-27T12:46:13.152Z,96089.04
2018-08-27T12:48:41.996Z,96084.92
2018-08-27T12:51:10.807Z,96087.45
2018-08-27T12:53:40.385Z,96082.13
2018-08-27T12:56:09.695Z,96087.55
2018-08-27T12:58:38.839Z,96084.36
2018-08-27T13:01:07.664Z,96082.74
2018-08-27T13:03:37.177Z,96076.68
2018-08-27T13:06:06.145Z,96074.70
2018-08-27T13:08:34.809Z,96078.63
2018-08-27T13:11:04.114Z,96066.46
2018-08-27T13:13:32.699Z,96070.48
2018-08-27T13:16:02.238Z,96073.53
2018-08-27T13:18:31.140Z,96068.84
2018-08-27T13:21:00.994Z,96067.47
2018-08-27T13:23:29.925Z,96067.30
2018-08-27T13:25:58.860Z,96072.66
2018-08-27T13:28:27.493Z,96069.19
2018-08-27T13:30:56.200Z,96070.11
2018-08-27T13:33:24.883Z,96069.98
2018-08-27T13:35:53.464Z,96075.48
2018-08-27T13:38:22.059Z,96078.63
2018-08-27T13:40:50.653Z,96076.41
2018-08-27T13:43:19.201Z,96071.16
2018-08-27T13:45:47.789Z,96071.98
2018-08-27T13:48:16.325Z,96063.89
2018-08-27T13:50:44.857Z,96066.08
2018-08-27T13:53:13.413Z,96073.84
2018-08-27T13:55:41.991Z,96071.62
2018-08-27T13:58:10.588Z,96069.70
2018-08-27T14:00:39.124Z,96068.55
2018-08-27T14:03:08.053Z,96061.33
2018-08-27T14:05:36.617Z,96063.83
2018-08-27T14:08:05.259Z,96063.08
2018-08-27T14:10:33.835Z,96058.47
2018-08-27T14:13:03.312Z,96051.81
2018-08-27T14:15:31.990Z,96049.70
2018-08-27T14:18:00.612Z,96049.88
2018-08-27T14:20:29.254Z,96042.28
2018-08-27T14:22:57.802Z,96041.09
2018-08-27T14:25:26.402Z,96051.09
2018-08-27T14:27:54.904Z,96043.56
2018-08-27T14:30:23.584Z,96041.75
2018-08-27T14:32:52.167Z,96041.42
2018-08-27T14:35:20.710Z,96044.06
2018-08-27T14:37:49.272Z,96042.66
2018-08-27T14:40:17.818Z,96036.50
2018-08-27T14:42:46.378Z,96034.39
2018-08-27T14:45:14.959Z,96037.16
2018-08-27T14:47:43.629Z,96034.36
2018-08-27T14:50:12.262Z,96039.06
2018-08-27T14:52:40.819Z,96041.24
2018-08-27T14:55:09.483Z,96045.91
2018-08-27T14:57:38.066Z,96046.00
2018-08-27T15:00:07.471Z,96051.09
2018-08-27T15:02:36.130Z,96048.69
2018-08-27T15:05:04.756Z,96051.31
2018-08-27T15:07:33.403Z,96051.90
2018-08-27T15:10:02.029Z,96050.39
2018-08-27T15:12:30.649Z,96049.85
2018-08-27T15:14:59.208Z,96049.55
2018-08-27T15:17:27.796Z,96059.06
2018-08-27T15:19:56.419Z,96054.17
2018-08-27T15:22:24.981Z,96068.72
2018-08-27T15:24:53.540Z,96061.81
2018-08-27T15:27:22.107Z,96065.82
2018-08-27T15:29:50.645Z,96058.03
2018-08-27T15:32:19.172Z,96053.13
2018-08-27T15:34:48.600Z,96057.05
2018-08-27T15:37:17.186Z,96060.14
2018-08-27T15:39:45.724Z,96052.75
2018-08-27T15:42:14.297Z,96047.38
2018-08-27T15:44:42.935Z,96044.52
2018-08-27T15:47:11.498Z,96041.75
2018-08-27T15:49:40.088Z,96040.22
2018-08-27T15:52:08.733Z,96043.19
2018-08-27T15:54:37.332Z,96049.83
2018-08-27T15:57:05.991Z,96053.50
2018-08-27T15:59:34.525Z,96041.77
2018-08-27T16:02:03.204Z,96047.00
2018-08-27T16:04:31.820Z,96043.63
2018-08-27T16:07:00.359Z,96042.91
2018-08-27T16:09:28.964Z,96048.85
2018-08-27T16:11:58.487Z,96054.88
2018-08-27T16:14:27.083Z,96045.16
2018-08-27T16:16:55.642Z,96040.13
2018-08-27T16:22:26.453Z,96043.66
2018-08-27T16:24:55.055Z,96047.77
2018-08-27T16:27:23.662Z,96043.99
2018-08-27T16:29:52.221Z,96007.13
2018-08-27T16:32:20.835Z,96039.66
2018-08-27T16:34:49.436Z,96035.56
2018-08-27T16:37:18.055Z,96040.77
2018-08-27T16:39:46.772Z,96040.20
2018-08-27T16:42:15.377Z,96045.22
2018-08-27T16:44:43.967Z,96050.22
2018-08-27T16:47:12.551Z,96044.99
2018-08-27T16:49:41.119Z,96044.91
2018-08-27T16:52:09.705Z,96040.77
2018-08-27T16:54:38.244Z,96050.50
2018-08-27T16:57:06.880Z,96046.82
2018-08-27T16:59:35.447Z,96047.97
2018-08-27T17:02:04.103Z,96054.09
2018-08-27T17:04:32.906Z,96056.80
2018-08-27T17:07:01.736Z,96060.99
2018-08-27T17:09:30.427Z,96055.77
2018-08-27T17:11:59.116Z,96054.70
2018-08-27T17:14:27.733Z,96061.13
2018-08-27T17:16:56.877Z,96058.58
2018-08-27T17:19:25.570Z,96069.91
2018-08-27T17:21:54.054Z,96068.21
2018-08-27T17:24:22.644Z,96066.64
2018-08-27T17:26:51.188Z,96073.11
2018-08-27T17:29:19.812Z,96074.50
2018-08-27T17:31:48.403Z,96075.61
2018-08-27T17:34:16.972Z,96078.97
2018-08-27T17:36:46.332Z,96081.23
2018-08-27T17:39:17.344Z,96080.24
2018-08-27T17:41:45.972Z,96078.55
2018-08-27T17:44:14.535Z,96083.03
2018-08-27T17:46:43.096Z,96082.16
2018-08-27T17:49:11.611Z,96085.30
2018-08-27T17:51:40.228Z,96094.98
2018-08-27T17:54:08.829Z,96092.86
2018-08-27T17:56:37.410Z,96092.45
2018-08-27T17:59:05.994Z,96090.14
2018-08-27T18:01:34.536Z,96092.66
2018-08-27T18:04:03.863Z,96096.94
2018-08-27T18:06:32.470Z,96098.20
2018-08-27T18:09:01.146Z,96093.88
2018-08-27T18:11:29.824Z,96101.98
2018-08-27T18:13:58.392Z,96101.97
2018-08-27T18:16:33.756Z,96105.08
2018-08-27T18:19:02.309Z,96107.50
2018-08-27T18:21:30.861Z,96108.16
2018-08-27T18:23:59.435Z,96110.54
2018-08-27T18:26:28.014Z,96121.23
2018-08-27T18:28:56.616Z,96114.45
2018-08-27T18:31:25.149Z,96112.33
2018-08-27T18:33:53.733Z,96117.05
2018-08-27T18:36:22.280Z,96121.34
2018-08-27T18:38:50.992Z,96130.78
2018-08-27T18:41:19.563Z,96131.73
2018-08-27T18:43:48.160Z,96128.32
2018-08-27T18:46:16.935Z,96131.26
2018-08-27T18:48:45.517Z,96134.03
2018-08-27T18:51:14.337Z,96134.21
2018-08-27T18:53:43.683Z,96132.78
2018-08-27T18:56:12.438Z,96136.84
2018-08-27T18:58:41.120Z,96137.97
2018-08-27T19:01:10.483Z,96142.69
2018-08-27T19:03:39.488Z,96144.46
2018-08-27T19:06:08.131Z,96144.42
2018-08-27T19:08:37.753Z,96147.32
2018-08-27T19:11:06.355Z,96144.72
2018-08-27T19:13:35.092Z,96151.52
2018-08-27T19:16:03.720Z,96152.83
2018-08-27T19:18:39.009Z,96150.27
2018-08-27T19:21:07.895Z,96152.83
2018-08-27T19:23:37.331Z,96154.59
2018-08-27T19:26:06.197Z,96157.05
2018-08-27T19:28:34.933Z,96152.83
2018-08-27T19:31:04.094Z,96152.86
2018-08-27T19:33:32.996Z,96158.36
2018-08-27T19:36:02.441Z,96152.89
2018-08-27T19:38:31.336Z,96147.57
2018-08-27T19:41:00.285Z,96156.52
2018-08-27T19:43:29.099Z,96156.69
2018-08-27T19:45:58.393Z,96160.91
2018-08-27T19:48:27.852Z,96165.92
2018-08-27T19:50:56.732Z,96163.34
2018-08-27T19:53:26.149Z,96162.07
2018-08-27T19:55:55.283Z,96171.81
2018-08-27T19:58:25.476Z,96167.59
2018-08-27T20:00:54.360Z,96166.77
2018-08-27T20:03:23.188Z,96170.67
2018-08-27T20:05:52.151Z,96174.08
2018-08-27T20:08:21.058Z,96185.39
2018-08-27T20:10:51.386Z,96188.95
2018-08-27T20:13:20.326Z,96191.85
2018-08-27T20:15:50.664Z,96192.16
2018-08-27T20:18:20.973Z,96190.70
2018-08-27T20:20:50.041Z,96192.09
2018-08-27T20:23:19.702Z,96200.03
2018-08-27T20:25:48.459Z,96202.14
2018-08-27T20:28:17.714Z,96198.94
2018-08-27T20:30:47.028Z,96197.35
2018-08-27T20:33:15.840Z,96200.59
2018-08-27T20:35:44.620Z,96205.28
2018-08-27T20:38:16.999Z,96208.70
2018-08-27T20:40:46.075Z,96205.14
2018-08-27T20:43:15.058Z,96203.53
2018-08-27T20:45:43.965Z,96205.66
2018-08-27T20:48:13.727Z,96207.59
2018-08-27T20:50:42.683Z,96206.13
2018-08-27T20:53:12.296Z,96202.55
2018-08-27T20:55:41.193Z,96203.83
2018-08-27T20:58:10.276Z,96208.21
2018-08-27T21:00:39.221Z,96207.09
2018-08-27T21:03:08.039Z,96213.25
2018-08-27T21:05:36.656Z,96211.48
2018-08-27T21:08:05.824Z,96212.77
2018-08-27T21:10:34.666Z,96217.16
2018-08-27T21:13:04.089Z,96212.47
2018-08-27T21:15:32.836Z,96213.59
2018-08-27T21:18:03.204Z,96216.02
2018-08-27T21:20:31.936Z,96216.02
2018-08-27T21:23:02.011Z,96224.61
2018-08-27T21:25:30.905Z,96226.71
2018-08-27T21:28:00.819Z,96227.53
2018-08-27T21:30:30.108Z,96230.45
2018-08-27T21:32:59.213Z,96233.06
2018-08-27T21:35:28.415Z,96237.90
2018-08-27T21:37:57.146Z,96241.46
2018-08-27T21:40:25.823Z,96233.69
2018-08-27T21:42:55.134Z,96235.64
2018-08-27T21:45:24.624Z,96236.30
2018-08-27T21:47:53.244Z,96240.16
2018-08-27T21:50:21.998Z,96234.98
2018-08-27T21:52:50.926Z,96241.59
2018-08-27T21:55:19.834Z,96246.29
2018-08-27T21:57:48.444Z,96242.56
2018-08-27T22:00:17.119Z,96247.56
2018-08-27T22:02:51.859Z,96251.55
2018-08-27T22:05:20.616Z,96245.50
2018-08-27T22:07:49.245Z,96251.34
2018-08-27T22:10:18.903Z,96254.56
2018-08-27T22:12:47.463Z,96255.07
2018-08-27T22:15:16.454Z,96257.00
2018-08-27T22:20:47.788Z,96273.55
2018-08-27T22:23:16.519Z,96264.51
2018-08-27T22:25:45.161Z,96263.05
2018-08-27T22:28:14.017Z,96266.44
2018-08-27T22:30:42.727Z,96264.61
2018-08-27T22:33:11.562Z,96263.30
2018-08-27T22:35:40.319Z,96268.76
2018-08-27T22:38:09.450Z,96268.13
2018-08-27T22:40:38.703Z,96270.66
2018-08-27T22:43:08.041Z,96276.50
2018-08-27T22:45:36.912Z,96271.51
2018-08-27T22:48:05.731Z,96271.06
2018-08-27T22:50:34.687Z,96271.72
2018-08-27T22:53:03.568Z,96266.89
2018-08-27T22:55:32.926Z,96269.30
2018-08-27T22:58:02.223Z,96273.02
2018-08-27T23:00:31.015Z,96276.59
2018-08-27T23:05:08.959Z,96279.84
2018-08-27T23:07:37.667Z,96278.93
2018-08-27T23:10:07.064Z,96279.44
2018-08-27T23:12:35.800Z,96279.15
2018-08-27T23:15:04.990Z,96279.84
2018-08-27T23:17:34.258Z,96276.30
2018-08-27T23:20:02.923Z,96275.70
2018-08-27T23:22:31.804Z,96277.59
2018-08-27T23:25:01.196Z,96280.08
2018-08-27T23:27:30.615Z,96279.58
2018-08-27T23:29:59.690Z,96274.56
2018-08-27T23:32:29.635Z,96275.48
2018-08-27T23:34:58.588Z,96280.48
2018-08-27T23:37:27.360Z,96275.95
2018-08-27T23:39:56.075Z,96282.43
2018-08-27T23:42:25.873Z,96283.25
2018-08-27T23:44:54.853Z,96284.92
2018-08-27T23:47:25.352Z,96290.42
2018-08-27T23:49:55.025Z,96282.36
2018-08-27T23:52:24.387Z,96284.79
2018-08-27T23:54:53.087Z,96288.67
2018-08-27T23:57:22.320Z,96287.88
2018-08-27T23:59:51.085Z,96290.97
